createdAt,value
2023-03-26T00:01:15.732Z,4.00
2023-03-26T00:06:14.281Z,2.77
2023-03-26T00:11:10.961Z,6.13
2023-03-26T00:16:05.837Z,4.27
2023-03-26T00:21:00.555Z,2.43
2023-03-26T00:25:56.331Z,4.00
2023-03-26T00:30:50.867Z,5.17
2023-03-26T00:35:47.273Z,7.03
2023-03-26T00:40:44.303Z,5.37
2023-03-26T00:45:39.233Z,6.07
2023-03-26T00:50:32.674Z,3.83
2023-03-26T00:55:26.281Z,4.47
2023-03-26T01:00:29.717Z,4.30
2023-03-26T01:05:46.754Z,3.37
2023-03-26T01:10:40.945Z,4.67
2023-03-26T01:15:37.342Z,4.37
2023-03-26T01:20:31.144Z,2.83
2023-03-26T01:25:34.030Z,3.93
2023-03-26T01:30:38.806Z,3.30
2023-03-26T01:35:46.965Z,2.80
2023-03-26T01:40:49.556Z,5.03
2023-03-26T01:45:47.337Z,2.73
2023-03-26T01:50:40.733Z,6.27
2023-03-26T01:55:50.822Z,4.67
2023-03-26T02:00:56.962Z,5.27
2023-03-26T02:05:58.746Z,10.17
2023-03-26T02:10:59.358Z,4.77
2023-03-26T02:16:01.829Z,5.33
2023-03-26T02:20:55.835Z,6.10
2023-03-26T02:25:49.258Z,5.33
2023-03-26T02:30:46.031Z,6.23
2023-03-26T02:35:40.279Z,4.23
2023-03-26T02:40:33.724Z,3.33
2023-03-26T02:45:27.202Z,4.53
2023-03-26T02:50:22.166Z,2.97
2023-03-26T02:55:15.852Z,5.40
2023-03-26T03:00:11.156Z,4.97
2023-03-26T03:05:06.045Z,2.97
2023-03-26T03:10:02.644Z,3.83
2023-03-26T03:14:56.001Z,4.37
2023-03-26T03:19:49.385Z,3.50
2023-03-26T03:24:45.769Z,3.33
2023-03-26T03:29:41.448Z,5.10
2023-03-26T03:34:34.782Z,2.03
2023-03-26T03:39:28.271Z,3.00
2023-03-26T03:44:21.685Z,2.53
2023-03-26T03:49:16.802Z,4.03
2023-03-26T03:54:10.510Z,5.07
2023-03-26T03:59:04.064Z,5.47
2023-03-26T04:03:57.842Z,2.63
2023-03-26T04:08:53.507Z,3.43
2023-03-26T04:13:46.937Z,4.43
2023-03-26T04:18:40.735Z,2.27
2023-03-26T04:23:35.511Z,3.47
2023-03-26T04:28:35.754Z,3.70
2023-03-26T04:33:31.813Z,3.20
2023-03-26T04:38:25.239Z,2.60
2023-03-26T04:43:19.096Z,3.23
2023-03-26T04:48:14.747Z,5.10
2023-03-26T04:53:08.529Z,3.60
2023-03-26T04:58:03.433Z,6.50
2023-03-26T05:02:57.997Z,2.57
2023-03-26T05:07:52.898Z,3.53
2023-03-26T05:12:48.184Z,4.73
2023-03-26T05:17:42.604Z,4.23
2023-03-26T05:22:38.065Z,2.30
2023-03-26T05:27:34.531Z,3.57
2023-03-26T05:32:27.898Z,2.70
2023-03-26T05:37:24.598Z,3.43
2023-03-26T05:42:17.850Z,3.47
2023-03-26T05:47:12.496Z,4.57
2023-03-26T05:52:06.153Z,2.80
2023-03-26T05:57:00.493Z,1.40
2023-03-26T06:01:54.637Z,2.00
2023-03-26T06:06:49.438Z,1.67
2023-03-26T06:11:43.049Z,2.17
2023-03-26T06:16:36.489Z,1.13
2023-03-26T06:21:30.262Z,1.10
2023-03-26T06:26:25.103Z,0.90
2023-03-26T06:31:19.316Z,2.80
2023-03-26T06:36:13.154Z,1.93
2023-03-26T06:41:08.235Z,1.63
2023-03-26T06:46:04.357Z,2.13
2023-03-26T07:52:24.452Z,5.23
2023-03-26T07:57:36.023Z,4.70
2023-03-26T08:02:51.744Z,3.67
2023-03-26T08:08:05.811Z,3.90
2023-03-26T08:13:11.293Z,2.70
2023-03-26T08:18:27.556Z,3.17
2023-03-26T10:20:21.000Z,3.07
2023-03-26T10:30:46.077Z,3.50
2023-03-26T10:35:57.467Z,4.10
2023-03-26T10:41:04.713Z,1.90
2023-03-26T10:46:28.505Z,3.17
2023-03-26T10:51:50.514Z,2.40
2023-03-26T10:56:47.948Z,2.00
2023-03-26T11:01:52.129Z,4.00
2023-03-26T11:07:00.278Z,2.47
2023-03-26T11:12:26.635Z,3.60
2023-03-26T11:17:39.739Z,2.37
2023-03-26T11:22:54.787Z,2.23
2023-03-26T11:28:10.055Z,2.90
2023-03-26T11:33:11.366Z,1.83
2023-03-26T11:38:17.628Z,2.80
2023-03-26T11:43:14.564Z,1.77
2023-03-26T11:48:15.731Z,1.63
2023-03-26T11:53:17.773Z,3.83
2023-03-26T11:58:44.827Z,1.60
2023-03-26T12:03:38.323Z,1.73
2023-03-26T12:08:39.663Z,3.07
2023-03-26T12:13:52.014Z,2.83
2023-03-26T12:19:02.412Z,2.83
2023-03-26T12:24:05.929Z,2.80
2023-03-26T12:29:12.849Z,3.07
2023-03-26T12:34:16.295Z,3.30
2023-03-26T12:40:10.588Z,1.13
2023-03-26T12:45:02.851Z,2.63
2023-03-26T12:49:59.514Z,1.33
2023-03-26T12:55:04.070Z,2.10
2023-03-26T13:00:38.385Z,1.73
2023-03-26T13:05:49.123Z,1.97
2023-03-26T13:11:10.662Z,2.30
2023-03-26T13:16:14.077Z,1.57
2023-03-26T13:21:17.410Z,2.77
2023-03-26T13:26:30.966Z,1.67
2023-03-26T13:31:35.477Z,1.70
2023-03-26T13:36:44.636Z,2.23
2023-03-26T13:42:11.251Z,0.77
2023-03-26T13:47:20.362Z,1.40
2023-03-26T13:52:24.819Z,0.90
2023-03-26T13:57:29.569Z,1.10
2023-03-26T14:02:35.815Z,1.60
2023-03-26T14:07:39.335Z,2.53
2023-03-26T14:12:53.672Z,0.57
2023-03-26T14:17:55.161Z,1.17
2023-03-26T14:23:08.184Z,3.70
2023-03-26T14:28:33.353Z,1.53
2023-03-26T14:33:59.700Z,1.17
2023-03-26T14:39:32.193Z,1.33
2023-03-26T14:45:10.045Z,2.73
2023-03-26T14:50:55.343Z,1.77
2023-03-26T14:56:39.971Z,2.87
2023-03-26T15:12:44.133Z,2.00
2023-03-26T15:18:32.697Z,2.00
2023-03-26T15:24:09.853Z,1.70
2023-03-26T15:29:43.001Z,1.00
2023-03-26T15:35:24.402Z,0.60
2023-03-26T15:40:43.932Z,1.30
2023-03-26T15:45:41.043Z,0.23
2023-03-26T15:50:52.811Z,0.40
2023-03-26T15:56:04.454Z,0.90
2023-03-26T16:01:19.240Z,0.50
2023-03-26T16:06:41.463Z,0.67
2023-03-26T16:12:02.289Z,1.90
2023-03-26T16:16:55.658Z,1.70
2023-03-26T16:22:01.708Z,2.20
2023-03-26T16:27:10.805Z,1.70
2023-03-26T16:32:18.207Z,1.00
2023-03-26T16:37:43.956Z,0.40
2023-03-26T16:42:43.096Z,0.40
2023-03-26T16:47:49.271Z,0.33
2023-03-26T16:52:56.355Z,0.47
2023-03-26T16:57:58.324Z,1.13
2023-03-26T17:03:06.331Z,0.87
2023-03-26T17:08:14.291Z,0.87
2023-03-26T17:13:07.591Z,0.57
2023-03-26T17:18:20.794Z,0.83
2023-03-26T17:23:39.052Z,0.33
2023-03-26T17:29:00.260Z,0.20
2023-03-26T17:33:54.895Z,1.83
2023-03-26T17:39:43.628Z,1.03
2023-03-26T17:44:49.713Z,0.20
2023-03-26T17:49:45.438Z,0.20
2023-03-26T17:54:47.096Z,0.20
2023-03-26T17:59:44.224Z,0.83
2023-03-26T18:04:42.260Z,1.07
2023-03-26T18:10:02.464Z,0.40
2023-03-26T18:15:21.714Z,1.30
2023-03-26T18:20:24.576Z,0.90
2023-03-26T18:25:30.414Z,1.30
2023-03-26T18:30:26.172Z,0.47
2023-03-26T18:45:34.185Z,0.30
2023-03-26T18:55:39.670Z,0.43
2023-03-26T19:00:35.473Z,0.80
2023-03-26T19:05:30.415Z,1.10
2023-03-26T19:10:25.313Z,0.50
2023-03-26T19:20:27.435Z,1.90
2023-03-26T19:25:29.472Z,1.20
2023-03-26T19:30:33.022Z,0.40
2023-03-26T20:16:35.396Z,0.77
2023-03-26T20:21:29.959Z,0.93
2023-03-26T20:26:25.165Z,1.47
2023-03-26T20:31:22.094Z,0.30
2023-03-26T21:27:43.572Z,1.80
2023-03-26T21:37:53.354Z,0.60
2023-03-26T21:47:56.034Z,0.40
2023-03-26T21:52:51.750Z,0.60
2023-03-26T22:08:19.383Z,0.93
2023-03-26T22:13:12.791Z,1.17
2023-03-26T22:18:07.263Z,1.17
2023-03-26T22:23:03.293Z,1.00
2023-03-26T22:27:57.603Z,0.80
2023-03-26T22:32:51.887Z,1.00
2023-03-26T22:37:45.351Z,1.73
2023-03-26T22:42:40.623Z,1.77
2023-03-26T22:47:35.468Z,0.83
2023-03-26T22:52:29.329Z,1.53
2023-03-26T22:57:22.945Z,2.20
2023-03-26T23:02:18.258Z,0.80
2023-03-26T23:07:12.176Z,0.70
2023-03-26T23:12:06.718Z,1.90
2023-03-26T23:17:01.448Z,0.70
2023-03-26T23:21:56.562Z,0.90
2023-03-26T23:26:51.269Z,0.90
2023-03-26T23:31:44.810Z,1.73
2023-03-26T23:36:38.313Z,2.23
2023-03-26T23:41:33.787Z,2.00
2023-03-26T23:46:30.644Z,1.57
2023-03-26T23:56:32.991Z,2.87
